Time;durP1;ratioP1;P1;durP2;ratioP2;P2;SDS_P1;SDS_P2;PMS_P1;PMS_P2;Temp;Humidity;BMP_temperature;BMP_pressure;BME280_temperature;BME280_humidity;BME280_pressure;Samples;Min_cycle;Max_cycle;Signal;HPM_P1;HPM_P2
2021/10/13 00:00:33;;;;;;;;;;;;;;;;;;;;;
2021/10/13 00:06:07;;;;;;;;;;;;;;;;;;;;;
2021/10/13 00:09:06;;;;;;;;;;;;;;;;;;;;;
2021/10/13 00:21:31;;;;;;;;;;;;;;;;;;;;;
2021/10/13 00:37:03;;;;;;;;;;;;;;;;;;;;;
2021/10/13 00:49:21;;;;;;;;;;;;;;;;;;;;;
2021/10/13 00:51:58;;;;;;;12.35;11.05;;;;;;;;;;5897877;24;20400;-80
2021/10/13 01:03:50;;;;;;;;;;;;;;;;;;;;;
2021/10/13 01:06:34;;;;;;;13.95;11.25;;;;;;;;;;5940746;23;20084;-82
2021/10/13 01:09:01;;;;;;;12.23;10.05;;;;;;;;;;6011987;23;20503;-79
2021/10/13 01:11:40;;;;;;;14.48;12.98;;;;;;;;;;6081760;23;20012;-79
2021/10/13 01:14:16;;;;;;;15.50;13.15;;;;;;;;;;6152591;23;20018;-78
2021/10/13 01:17:03;;;;;;;16.20;13.45;;;;;;;;;;6152976;23;20361;-79
2021/10/13 01:19:35;;;;;;;17.60;13.88;;;;;;;;;;6200003;23;20004;-82
2021/10/13 01:22:13;;;;;;;15.55;13.63;;;;;;;;;;6245597;23;20011;-77
2021/10/13 01:24:57;;;;;;;16.55;12.98;;;;;;;;;;6244884;23;20039;-80
2021/10/13 01:27:49;;;;;;;16.33;13.85;;;;;;;;;;6245292;23;20023;-80
2021/10/13 01:30:17;;;;;;;15.77;13.07;;;;;;;;;;6245349;23;20027;-81
2021/10/13 01:32:43;;;;;;;17.00;14.13;;;;;;;;;;6245262;23;20011;-78
2021/10/13 01:35:10;;;;;;;17.73;13.48;;;;;;;;;;6245334;23;20008;-78
2021/10/13 01:37:44;;;;;;;14.60;12.40;;;;;;;;;;6245307;23;20011;-79
2021/10/13 01:40:13;;;;;;;14.77;12.80;;;;;;;;;;6218457;23;20004;-77
2021/10/13 01:42:42;;;;;;;15.20;11.65;;;;;;;;;;6245744;23;20001;-80
2021/10/13 01:45:08;;;;;;;15.30;13.23;;;;;;;;;;6245092;23;20466;-80
2021/10/13 01:47:35;;;;;;;15.07;11.95;;;;;;;;;;6218288;23;20008;-80
2021/10/13 01:50:02;;;;;;;14.38;11.30;;;;;;;;;;6245100;23;20022;-79
2021/10/13 01:52:29;;;;;;;15.98;12.50;;;;;;;;;;6245102;23;20455;-78
2021/10/13 01:55:03;;;;;;;16.45;13.13;;;;;;;;;;6245084;23;20012;-77
2021/10/13 01:57:30;;;;;;;16.10;11.93;;;;;;;;;;6245142;23;20071;-77
2021/10/13 01:59:58;;;;;;;15.32;12.77;;;;;;;;;;6244902;23;20363;-81
2021/10/13 02:02:31;;;;;;;14.07;12.23;;;;;;;;;;6256996;22;20015;-77
2021/10/13 02:04:57;;;;;;;15.05;11.63;;;;;;;;;;6248855;22;20004;-79
2021/10/13 02:07:24;;;;;;;13.25;11.68;;;;;;;;;;6275950;22;20070;-80
2021/10/13 02:09:52;;;;;;;13.32;11.10;;;;;;;;;;6275746;22;20011;-83
2021/10/13 02:12:19;;;;;;;13.38;10.57;;;;;;;;;;6275779;22;20031;-80
2021/10/13 02:14:47;;;;;;;14.45;10.95;;;;;;;;;;6275849;22;20431;-77
2021/10/13 02:17:14;;;;;;;12.63;11.18;;;;;;;;;;6248812;22;20035;-80
2021/10/13 02:19:41;;;;;;;11.43;10.23;;;;;;;;;;6248229;22;20000;-81
2021/10/13 02:22:08;;;;;;;12.52;10.30;;;;;;;;;;6275703;22;20014;-78
2021/10/13 02:24:45;;;;;;;11.68;10.48;;;;;;;;;;6275609;22;20000;-83
2021/10/13 02:27:18;;;;;;;12.07;10.65;;;;;;;;;;6275729;22;20027;-85
2021/10/13 02:29:44;;;;;;;12.25;10.95;;;;;;;;;;6275387;22;20037;-78
2021/10/13 02:32:12;;;;;;;11.82;10.48;;;;;;;;;;6275652;22;20004;-83
2021/10/13 02:34:42;;;;;;;12.57;10.18;;;;;;;;;;6275321;22;20018;-80
2021/10/13 02:37:09;;;;;;;14.95;10.82;;;;;;;;;;6277266;22;20004;-79
2021/10/13 02:39:35;;;;;;;13.93;11.82;;;;;;;;;;6277170;22;20058;-78
2021/10/13 02:42:19;;;;;;;12.82;11.10;;;;;;;;;;6277706;22;20009;-85
2021/10/13 02:44:46;;;;;;;14.82;11.75;;;;;;;;;;6250734;22;20065;-77
2021/10/13 02:47:14;;;;;;;14.38;11.90;;;;;;;;;;6276974;22;20061;-78
2021/10/13 02:49:40;;;;;;;14.23;11.65;;;;;;;;;;6277538;22;20004;-80
2021/10/13 02:52:25;;;;;;;15.52;12.07;;;;;;;;;;6277315;22;20002;-78
2021/10/13 02:54:55;;;;;;;14.77;11.60;;;;;;;;;;6277230;22;20019;-81
2021/10/13 02:57:23;;;;;;;14.63;12.75;;;;;;;;;;6277375;22;20010;-82
2021/10/13 02:59:51;;;;;;;15.15;11.60;;;;;;;;;;6277238;22;20004;-80
2021/10/13 03:02:24;;;;;;;15.00;12.32;;;;;;;;;;6250391;22;20324;-79
2021/10/13 03:04:51;;;;;;;14.00;11.38;;;;;;;;;;6277188;22;20061;-77
2021/10/13 03:07:21;;;;;;;15.05;12.10;;;;;;;;;;6277694;22;20004;-80
2021/10/13 03:09:57;;;;;;;15.68;13.38;;;;;;;;;;6276913;22;20003;-78
2021/10/13 03:12:26;;;;;;;16.27;13.25;;;;;;;;;;6277443;22;20071;-83
2021/10/13 03:14:55;;;;;;;16.45;12.73;;;;;;;;;;6277137;22;20008;-84
2021/10/13 03:17:23;;;;;;;16.85;13.55;;;;;;;;;;6277216;22;20004;-79
2021/10/13 03:19:49;;;;;;;16.60;12.55;;;;;;;;;;6276914;22;20008;-80
2021/10/13 03:22:17;;;;;;;14.52;12.82;;;;;;;;;;6277282;22;19999;-80
2021/10/13 03:24:43;;;;;;;15.73;12.85;;;;;;;;;;6277020;22;20304;-77
2021/10/13 03:27:10;;;;;;;17.65;14.63;;;;;;;;;;6277061;22;20027;-80
2021/10/13 03:29:42;;;;;;;16.10;13.82;;;;;;;;;;6276981;22;20035;-78
2021/10/13 03:32:08;;;;;;;16.02;13.85;;;;;;;;;;6277354;22;20130;-79
2021/10/13 03:34:34;;;;;;;22.23;17.77;;;;;;;;;;6276831;22;20146;-79
2021/10/13 03:37:01;;;;;;;18.60;14.60;;;;;;;;;;6277005;22;20331;-79
2021/10/13 03:39:27;;;;;;;20.15;16.00;;;;;;;;;;6276957;22;20003;-76
2021/10/13 03:41:53;;;;;;;21.45;15.38;;;;;;;;;;6276737;22;20031;-77
2021/10/13 03:44:20;;;;;;;18.45;15.15;;;;;;;;;;6277438;22;20005;-80
2021/10/13 03:46:46;;;;;;;18.85;14.75;;;;;;;;;;6276502;22;20000;-78
2021/10/13 03:49:12;;;;;;;20.15;15.77;;;;;;;;;;6276613;22;20031;-80
2021/10/13 03:51:38;;;;;;;20.83;16.02;;;;;;;;;;6276724;22;20434;-79
2021/10/13 03:54:04;;;;;;;18.42;14.75;;;;;;;;;;6276765;22;20008;-81
2021/10/13 03:56:31;;;;;;;17.08;14.23;;;;;;;;;;6277098;22;20004;-80
2021/10/13 03:58:58;;;;;;;16.55;13.68;;;;;;;;;;6276621;22;19996;-79
2021/10/13 04:01:24;;;;;;;18.35;14.70;;;;;;;;;;6249680;22;20015;-80
2021/10/13 04:03:50;;;;;;;19.48;15.70;;;;;;;;;;6276241;22;20008;-80
2021/10/13 04:06:16;;;;;;;18.85;15.75;;;;;;;;;;6276749;22;20435;-80
2021/10/13 04:08:45;;;;;;;21.85;17.92;;;;;;;;;;6249257;22;20003;-76
2021/10/13 04:11:31;;;;;;;22.25;17.65;;;;;;;;;;6249330;22;20480;-78
2021/10/13 04:13:57;;;;;;;23.70;16.75;;;;;;;;;;6276662;22;20012;-78
2021/10/13 04:16:23;;;;;;;19.15;16.55;;;;;;;;;;6276587;22;20073;-79
2021/10/13 04:18:49;;;;;;;21.95;17.63;;;;;;;;;;6276562;22;20031;-78
2021/10/13 04:21:15;;;;;;;19.77;15.65;;;;;;;;;;6276403;22;20000;-81
2021/10/13 04:23:41;;;;;;;21.08;16.45;;;;;;;;;;6276068;22;20426;-78
2021/10/13 04:26:08;;;;;;;18.73;15.43;;;;;;;;;;6276358;22;20334;-81
2021/10/13 04:28:34;;;;;;;21.00;16.70;;;;;;;;;;6249005;22;20014;-81
2021/10/13 04:31:00;;;;;;;17.40;14.48;;;;;;;;;;6276563;22;20434;-79
2021/10/13 04:33:26;;;;;;;20.70;16.30;;;;;;;;;;6276278;22;20030;-78
2021/10/13 04:35:52;;;;;;;22.10;16.05;;;;;;;;;;6276215;22;20307;-77
2021/10/13 04:38:18;;;;;;;19.80;15.68;;;;;;;;;;6276354;22;20004;-83
2021/10/13 04:40:44;;;;;;;18.40;14.45;;;;;;;;;;6276095;22;20027;-84
2021/10/13 04:43:10;;;;;;;20.20;16.42;;;;;;;;;;6249578;22;20100;-81
2021/10/13 04:45:36;;;;;;;21.83;17.27;;;;;;;;;;6276242;22;19999;-83
2021/10/13 04:48:03;;;;;;;19.83;16.23;;;;;;;;;;6276283;22;20369;-82
2021/10/13 04:50:31;;;;;;;21.25;15.23;;;;;;;;;;6276361;22;20007;-78
2021/10/13 04:52:57;;;;;;;20.88;15.57;;;;;;;;;;6275932;22;20114;-82
2021/10/13 04:55:24;;;;;;;19.75;15.50;;;;;;;;;;6249696;22;20004;-78
2021/10/13 04:57:50;;;;;;;20.15;15.98;;;;;;;;;;6275662;22;20057;-77
2021/10/13 05:00:16;;;;;;;25.17;18.95;;;;;;;;;;6275813;22;20331;-82
2021/10/13 05:02:42;;;;;;;20.92;15.65;;;;;;;;;;6248431;22;20015;-78
2021/10/13 05:05:08;;;;;;;19.60;14.98;;;;;;;;;;6276042;22;20003;-80
2021/10/13 05:07:35;;;;;;;17.63;13.73;;;;;;;;;;6275905;22;19999;-82
2021/10/13 05:10:01;;;;;;;19.00;14.70;;;;;;;;;;6275758;22;19999;-81
2021/10/13 05:12:27;;;;;;;18.42;14.85;;;;;;;;;;6276024;22;20098;-84
2021/10/13 05:14:53;;;;;;;18.60;15.18;;;;;;;;;;6248469;22;20015;-82
2021/10/13 05:17:19;;;;;;;18.33;14.80;;;;;;;;;;6275892;22;20011;-77
2021/10/13 05:19:45;;;;;;;20.33;15.88;;;;;;;;;;6275308;22;20006;-82
2021/10/13 05:22:14;;;;;;;22.90;16.75;;;;;;;;;;6275903;22;20105;-84
2021/10/13 05:24:40;;;;;;;20.98;16.33;;;;;;;;;;6275361;22;20446;-82
2021/10/13 05:27:06;;;;;;;22.42;17.38;;;;;;;;;;6275519;22;20014;-85
2021/10/13 05:29:32;;;;;;;21.70;16.83;;;;;;;;;;6249028;22;20062;-83
2021/10/13 05:31:58;;;;;;;19.17;15.02;;;;;;;;;;6274126;22;20031;-81
2021/10/13 05:34:24;;;;;;;17.08;14.30;;;;;;;;;;6275367;22;20057;-83
2021/10/13 05:36:54;;;;;;;20.73;14.65;;;;;;;;;;6245665;22;20484;-77
2021/10/13 05:39:20;;;;;;;17.30;14.07;;;;;;;;;;6246221;22;20031;-83
2021/10/13 05:41:46;;;;;;;19.13;14.93;;;;;;;;;;6275852;22;20061;-80
2021/10/13 05:44:12;;;;;;;20.30;14.93;;;;;;;;;;6274698;22;20004;-79
2021/10/13 05:46:38;;;;;;;38.05;30.50;;;;;;;;;;6274714;22;20008;-81
2021/10/13 05:49:04;;;;;;;18.95;15.95;;;;;;;;;;6247052;22;20004;-80
2021/10/13 05:51:30;;;;;;;21.15;16.80;;;;;;;;;;6274380;22;20006;-81
2021/10/13 05:53:56;;;;;;;39.72;31.80;;;;;;;;;;6274430;22;20003;-86
2021/10/13 05:56:25;;;;;;;20.90;17.77;;;;;;;;;;6274993;22;20035;-82
2021/10/13 05:58:53;;;;;;;19.50;16.63;;;;;;;;;;6275247;22;20334;-80
2021/10/13 06:01:22;;;;;;;19.98;16.40;;;;;;;;;;6275353;22;20087;-82
2021/10/13 06:03:49;;;;;;;20.13;16.38;;;;;;;;;;6247702;22;20514;-81
2021/10/13 06:06:15;;;;;;;33.17;24.10;;;;;;;;;;6247648;22;20003;-80
2021/10/13 06:08:42;;;;;;;24.90;19.33;;;;;;;;;;6275467;22;20006;-82
2021/10/13 06:11:08;;;;;;;47.05;30.00;;;;;;;;;;6277328;22;20007;-79
2021/10/13 06:13:37;;;;;;;29.90;22.13;;;;;;;;;;6276397;22;20012;-82
2021/10/13 06:16:03;;;;;;;17.73;13.70;;;;;;;;;;6249902;22;20012;-79
2021/10/13 06:18:29;;;;;;;16.98;14.40;;;;;;;;;;6277426;22;20003;-83
2021/10/13 06:20:55;;;;;;;18.15;15.18;;;;;;;;;;6250288;22;20011;-82
2021/10/13 06:23:21;;;;;;;20.38;18.27;;;;;;;;;;6276999;22;20000;-79
2021/10/13 06:25:47;;;;;;;16.67;14.27;;;;;;;;;;6277410;22;20451;-81
2021/10/13 06:28:13;;;;;;;19.08;16.77;;;;;;;;;;6276777;22;20002;-80
2021/10/13 06:30:42;;;;;;;18.77;15.27;;;;;;;;;;6277529;22;20070;-78
2021/10/13 06:33:10;;;;;;;18.50;15.20;;;;;;;;;;6277820;22;20085;-79
2021/10/13 06:36:10;;;;;;;;;;;;;;;;;;;;;
2021/10/13 06:41:52;;;;;;;;;;;;;;;;;;;;;
2021/10/13 06:44:31;;;;;;;;;;;;;;;;;;;;;
2021/10/13 06:47:27;;;;;;;;;;;;;;;;;;;;;
2021/10/13 06:50:19;;;;;;;;;;;;;;;;;;;;;
2021/10/13 06:56:08;;;;;;;;;;;;;;;;;;;;;
2021/10/13 06:58:53;;;;;;;;;;;;;;;;;;;;;
2021/10/13 07:04:34;;;;;;;18.67;14.88;;;;;;;;;;6007875;23;20383;-79
2021/10/13 07:07:07;;;;;;;41.75;32.30;;;;;;;;;;6205364;22;20043;-83
2021/10/13 07:09:41;;;;;;;18.17;14.83;;;;;;;;;;6276875;22;20010;-80
2021/10/13 07:12:40;;;;;;;;;;;;;;;;;;;;;
2021/10/13 07:24:45;;;;;;;;;;;;;;;;;;;;;
2021/10/13 07:30:47;;;;;;;14.20;12.80;;;;;;;;;;5980493;24;20019;-79
2021/10/13 08:06:45;;;;;;;14.43;12.75;;;;;;;;;;5893373;24;20297;-80
2021/10/13 08:09:32;;;;;;;;;;;;;;;;;;;;;
2021/10/13 08:15:34;;;;;;;14.98;11.68;;;;;;;;;;5840453;24;20018;-86
2021/10/13 08:23:56;;;;;;;13.82;11.55;;;;;;;;;;5919256;24;20050;-80
2021/10/13 08:27:01;;;;;;;;;;;;;;;;;;;;;
2021/10/13 08:30:16;;;;;;;13.38;10.95;;;;;;;;;;6062430;23;20089;-80
2021/10/13 08:48:24;;;;;;;;;;;;;;;;;;;;;
2021/10/13 08:51:20;;;;;;;;;;;;;;;;;;;;;
2021/10/13 08:54:17;;;;;;;;;;;;;;;;;;;;;
2021/10/13 08:56:43;;;;;;;11.57;10.13;;;;;;;;;;6151767;23;20089;-78
2021/10/13 08:59:50;;;;;;;12.35;11.02;;;;;;;;;;6151991;23;20452;-82
2021/10/13 09:08:48;;;;;;;;;;;;;;;;;;;;;
2021/10/13 09:11:47;;;;;;;;;;;;;;;;;;;;;
2021/10/13 09:23:53;;;;;;;;;;;;;;;;;;;;;
2021/10/13 09:26:55;;;;;;;12.07;10.75;;;;;;;;;;6177222;23;20788;-78
2021/10/13 09:29:43;;;;;;;14.77;11.13;;;;;;;;;;6266153;22;20004;-76
2021/10/13 09:32:10;;;;;;;12.32;10.98;;;;;;;;;;6273331;22;20478;-76
2021/10/13 09:35:17;;;;;;;15.75;11.07;;;;;;;;;;6275141;22;20008;-78
2021/10/13 09:37:42;;;;;;;;;;;;;;;;;;6270714;22;20019;-77
2021/10/13 09:40:32;;;;;;;14.02;12.18;;;;;;;;;;6273386;22;20402;-80
2021/10/13 09:43:00;;;;;;;15.20;12.07;;;;;;;;;;6274596;22;20015;-77
2021/10/13 09:45:33;;;;;;;11.77;10.48;;;;;;;;;;6273954;22;20010;-77
2021/10/13 09:48:07;;;;;;;12.48;10.38;;;;;;;;;;6274180;22;20049;-69
2021/10/13 09:50:38;;;;;;;10.37;9.33;;;;;;;;;;6272750;22;20065;-80
2021/10/13 09:53:14;;;;;;;13.10;10.43;;;;;;;;;;6246827;22;20007;-77
2021/10/13 09:55:40;;;;;;;13.95;11.60;;;;;;;;;;6273176;22;20004;-80
2021/10/13 09:58:20;;;;;;;12.55;11.15;;;;;;;;;;6274811;22;20011;-78
2021/10/13 10:00:46;;;;;;;11.50;10.10;;;;;;;;;;6274753;22;20010;-78
2021/10/13 10:03:16;;;;;;;11.80;10.48;;;;;;;;;;6273438;22;20463;-77
2021/10/13 10:05:42;;;;;;;14.02;11.27;;;;;;;;;;6274466;22;20083;-78
2021/10/13 10:08:10;;;;;;;13.40;10.38;;;;;;;;;;6273589;22;20381;-78
2021/10/13 10:10:57;;;;;;;13.32;11.27;;;;;;;;;;6247028;22;20000;-79
2021/10/13 10:13:40;;;;;;;13.73;10.43;;;;;;;;;;6226185;23;20024;-79
2021/10/13 10:16:07;;;;;;;11.38;9.88;;;;;;;;;;6217181;23;20502;-79
2021/10/13 10:18:34;;;;;;;11.38;10.02;;;;;;;;;;6242886;23;20000;-78
2021/10/13 10:21:19;;;;;;;12.55;10.35;;;;;;;;;;6243614;23;20000;-78
2021/10/13 10:23:45;;;;;;;;;;;;;;;;;;6242743;23;20085;-78
2021/10/13 10:26:29;;;;;;;11.73;9.93;;;;;;;;;;6242709;23;19903;-79
2021/10/13 10:28:57;;;;;;;13.80;10.25;;;;;;;;;;6243384;23;20008;-79
2021/10/13 10:31:29;;;;;;;10.40;9.30;;;;;;;;;;6243183;23;20061;-79
2021/10/13 10:34:04;;;;;;;13.90;9.60;;;;;;;;;;6243888;23;20070;-83
2021/10/13 10:36:39;;;;;;;12.95;9.90;;;;;;;;;;6215762;23;20095;-83
2021/10/13 10:39:07;;;;;;;11.70;10.20;;;;;;;;;;6242662;23;20004;-78
2021/10/13 10:41:39;;;;;;;11.75;10.43;;;;;;;;;;6243207;23;20043;-79
2021/10/13 10:44:24;;;;;;;12.35;9.80;;;;;;;;;;6243645;23;20008;-79
2021/10/13 10:47:11;;;;;;;10.65;8.98;;;;;;;;;;6241785;23;20004;-81
2021/10/13 10:49:54;;;;;;;15.85;10.73;;;;;;;;;;6214592;23;20106;-80
2021/10/13 10:52:21;;;;;;;13.32;10.88;;;;;;;;;;6214810;23;20343;-80
2021/10/13 10:54:57;;;;;;;12.35;10.68;;;;;;;;;;6243376;23;20008;-83
2021/10/13 10:57:30;;;;;;;15.60;13.07;;;;;;;;;;6217761;23;20056;-80
2021/10/13 10:59:56;;;;;;;17.23;13.70;;;;;;;;;;6243757;23;20083;-80
2021/10/13 11:02:23;;;;;;;12.02;10.80;;;;;;;;;;6244773;23;20091;-80
2021/10/13 11:05:09;;;;;;;14.27;11.98;;;;;;;;;;6244838;23;20020;-80
2021/10/13 11:07:38;;;;;;;14.02;11.57;;;;;;;;;;6244860;23;20107;-78
2021/10/13 11:10:23;;;;;;;16.45;11.60;;;;;;;;;;6245727;23;20023;-80
2021/10/13 11:12:49;;;;;;;;;;;;;;;;;;6219025;23;20457;-82
2021/10/13 11:15:16;;;;;;;25.38;21.17;;;;;;;;;;6244138;23;19990;-79
2021/10/13 11:17:42;;;;;;;10.82;8.68;;;;;;;;;;6243702;23;20034;-80
2021/10/13 11:20:12;;;;;;;9.52;8.23;;;;;;;;;;6245535;23;20047;-78
2021/10/13 11:22:39;;;;;;;11.38;8.68;;;;;;;;;;6244453;23;20015;-81
2021/10/13 11:25:19;;;;;;;11.20;9.48;;;;;;;;;;6245003;23;20000;-80
2021/10/13 11:28:04;;;;;;;9.98;8.55;;;;;;;;;;6243535;23;20004;-81
2021/10/13 11:30:35;;;;;;;10.98;8.35;;;;;;;;;;6242040;23;20071;-81
2021/10/13 11:33:04;;;;;;;10.70;8.60;;;;;;;;;;6244564;23;20000;-77
2021/10/13 11:35:30;;;;;;;11.95;8.57;;;;;;;;;;6216961;23;20039;-80
2021/10/13 11:37:56;;;;;;;12.25;9.10;;;;;;;;;;6244628;23;20466;-86
2021/10/13 11:40:23;;;;;;;13.50;10.98;;;;;;;;;;6244736;23;20416;-78
2021/10/13 11:42:49;;;;;;;13.30;11.43;;;;;;;;;;6244205;23;20360;-81
2021/10/13 11:45:17;;;;;;;9.32;8.05;;;;;;;;;;6244302;23;20324;-83
2021/10/13 11:47:43;;;;;;;10.35;8.60;;;;;;;;;;6218231;23;20008;-84
2021/10/13 11:50:10;;;;;;;12.75;8.90;;;;;;;;;;6245838;23;20023;-78
2021/10/13 11:52:40;;;;;;;11.30;9.45;;;;;;;;;;6244393;23;20098;-82
2021/10/13 11:55:10;;;;;;;12.70;10.10;;;;;;;;;;6245768;23;20008;-78
2021/10/13 11:57:52;;;;;;;12.73;8.95;;;;;;;;;;6245393;23;20000;-79
2021/10/13 12:00:22;;;;;;;10.45;8.98;;;;;;;;;;6245152;23;20004;-79
2021/10/13 12:03:02;;;;;;;9.98;8.15;;;;;;;;;;6212587;23;20024;-80
2021/10/13 12:05:29;;;;;;;10.23;9.23;;;;;;;;;;6215104;23;20001;-80
2021/10/13 12:08:00;;;;;;;9.57;8.55;;;;;;;;;;6214750;23;20067;-81
2021/10/13 12:10:45;;;;;;;9.63;8.73;;;;;;;;;;6213607;23;20004;-83
2021/10/13 12:13:37;;;;;;;11.50;8.38;;;;;;;;;;6214693;23;20007;-79
2021/10/13 12:16:05;;;;;;;10.13;8.82;;;;;;;;;;6210192;23;20008;-83
2021/10/13 12:19:00;;;;;;;12.13;8.98;;;;;;;;;;6214009;23;20012;-83
2021/10/13 12:24:25;;;;;;;11.00;9.40;;;;;;;;;;6122755;23;20010;-86
2021/10/13 12:33:37;;;;;;;;;;;;;;;;;;;;;
2021/10/13 12:46:02;;;;;;;;;;;;;;;;;;;;;
2021/10/13 13:00:49;;;;;;;10.85;8.77;;;;;;;;;;5926938;24;20625;-82
2021/10/13 13:06:07;;;;;;;10.65;9.57;;;;;;;;;;5965117;24;20022;-78
2021/10/13 13:08:50;;;;;;;11.02;9.25;;;;;;;;;;5979590;23;20396;-82
2021/10/13 13:21:01;;;;;;;11.70;10.10;;;;;;;;;;5923994;24;20021;-81
2021/10/13 13:26:55;;;;;;;12.95;9.88;;;;;;;;;;6006466;23;20015;-83
2021/10/13 13:32:40;;;;;;;;;;;;;;;;;;;;;
2021/10/13 13:38:41;;;;;;;14.38;10.75;;;;;;;;;;5950393;24;20219;-81
2021/10/13 13:47:51;;;;;;;;;;;;;;;;;;;;;
2021/10/13 13:50:28;;;;;;;;;;;;;;;;;;;;;
2021/10/13 13:53:18;;;;;;;13.02;10.73;;;;;;;;;;6033367;23;20078;-78
2021/10/13 13:56:14;;;;;;;;;;;;;;;;;;;;;
2021/10/13 13:59:00;;;;;;;13.02;10.18;;;;;;;;;;6035642;23;20087;-79
2021/10/13 14:01:29;;;;;;;16.27;13.27;;;;;;;;;;6036264;23;20007;-77
2021/10/13 14:04:16;;;;;;;16.08;13.85;;;;;;;;;;6041346;23;20098;-78
2021/10/13 14:07:05;;;;;;;25.42;19.60;;;;;;;;;;6064615;23;20003;-83
2021/10/13 14:09:33;;;;;;;14.43;12.50;;;;;;;;;;6147873;23;20032;-79
2021/10/13 14:12:25;;;;;;;12.73;10.95;;;;;;;;;;6245203;23;20420;-84
2021/10/13 14:15:08;;;;;;;13.18;10.52;;;;;;;;;;6245130;23;20046;-78
2021/10/13 14:20:24;;;;;;;16.05;11.65;;;;;;;;;;6222583;23;20035;-79
2021/10/13 14:22:50;;;;;;;14.05;12.35;;;;;;;;;;6244533;23;20000;-81
2021/10/13 14:28:03;;;;;;;10.35;9.25;;;;;;;;;;6182292;23;20012;-80
2021/10/13 14:30:29;;;;;;;10.95;8.18;;;;;;;;;;6244366;23;20015;-79
2021/10/13 14:33:24;;;;;;;10.80;9.43;;;;;;;;;;6246032;23;20000;-81
2021/10/13 14:35:59;;;;;;;;;;;;;;;;;;6247487;23;20012;-78
2021/10/13 14:38:27;;;;;;;11.20;9.82;;;;;;;;;;6246740;23;19903;-80
2021/10/13 14:40:56;;;;;;;14.02;11.05;;;;;;;;;;6220109;23;20026;-82
2021/10/13 14:43:22;;;;;;;10.65;9.55;;;;;;;;;;6245800;23;20503;-79
2021/10/13 14:45:51;;;;;;;13.48;11.05;;;;;;;;;;6246891;23;20486;-78
2021/10/13 14:48:19;;;;;;;18.40;15.00;;;;;;;;;;6247076;23;20004;-79
2021/10/13 14:50:45;;;;;;;16.23;13.85;;;;;;;;;;6246174;23;20039;-76
2021/10/13 14:53:25;;;;;;;13.80;11.25;;;;;;;;;;6219224;23;20000;-81
2021/10/13 14:55:59;;;;;;;13.70;12.27;;;;;;;;;;6246168;23;20007;-79
2021/10/13 14:58:32;;;;;;;12.17;10.23;;;;;;;;;;6246341;23;20079;-80
2021/10/13 15:03:54;;;;;;;12.40;10.30;;;;;;;;;;6197252;23;20100;-80
2021/10/13 15:06:33;;;;;;;;;;;;;;;;;;;;;
2021/10/13 15:09:00;;;;;;;13.90;10.55;;;;;;;;;;6215952;23;20599;-83
2021/10/13 15:17:37;;;;;;;20.92;13.73;;;;;;;;;;6198727;23;20009;-83
2021/10/13 15:20:16;;;;;;;;;;;;;;;;;;;;;
2021/10/13 15:22:59;;;;;;;25.00;16.45;;;;;;;;;;6215066;23;20527;-80
2021/10/13 15:25:57;;;;;;;21.25;15.13;;;;;;;;;;6215645;23;20435;-79
2021/10/13 15:28:41;;;;;;;;;;;;;;;;;;6213452;23;20011;-79
2021/10/13 15:31:35;;;;;;;26.10;19.08;;;;;;;;;;6213759;23;20014;-79
2021/10/13 15:34:24;;;;;;;17.08;13.55;;;;;;;;;;6214797;23;20771;-81
2021/10/13 15:43:17;;;;;;;;;;;;;;;;;;;;;
2021/10/13 15:49:18;;;;;;;;;;;;;;;;;;;;;
2021/10/13 15:51:41;;;;;;;15.40;12.07;;;;;;;;;;6118105;23;20006;-79
2021/10/13 15:57:27;;;;;;;;;;;;;;;;;;;;;
2021/10/13 16:00:13;;;;;;;14.95;10.52;;;;;;;;;;6123952;23;20084;-78
2021/10/13 16:02:39;;;;;;;12.52;11.25;;;;;;;;;;6123313;23;20461;-79
2021/10/13 16:05:19;;;;;;;;;;;;;;;;;;;;;
2021/10/13 16:07:46;;;;;;;14.90;11.77;;;;;;;;;;6094855;23;20108;-77
2021/10/13 16:13:26;;;;;;;13.60;11.00;;;;;;;;;;6104235;23;20621;-78
2021/10/13 16:28:18;;;;;;;;;;;;;;;;;;;;;
2021/10/13 16:34:14;;;;;;;12.20;10.07;;;;;;;;;;6035262;23;20022;-80
2021/10/13 16:40:35;;;;;;;;;;;;;;;;;;;;;
2021/10/13 16:42:52;;;;;;;14.57;11.20;;;;;;;;;;6084369;23;20011;-82
2021/10/13 16:45:54;;;;;;;;;;;;;;;;;;;;;
2021/10/13 16:52:00;;;;;;;;;;;;;;;;;;;;;
2021/10/13 16:55:07;;;;;;;13.18;11.15;;;;;;;;;;5944969;24;20091;-82
2021/10/13 16:57:39;;;;;;;11.05;9.93;;;;;;;;;;5979951;24;20008;-80
2021/10/13 17:00:13;;;;;;;12.90;10.90;;;;;;;;;;6078295;23;20338;-78
2021/10/13 17:02:42;;;;;;;;;;;;;;;;;;6122879;23;20060;-81
2021/10/13 17:05:21;;;;;;;;;;;;;;;;;;;;;
2021/10/13 17:07:47;;;;;;;11.63;10.43;;;;;;;;;;6152243;23;20085;-79
2021/10/13 17:31:51;;;;;;;;;;;;;;;;;;;;;
2021/10/13 17:37:27;;;;;;;15.88;12.52;;;;;;;;;;5982372;23;20068;-79
2021/10/13 17:43:32;;;;;;;;;;;;;;;;;;;;;
2021/10/13 17:49:20;;;;;;;;;;;;;;;;;;;;;
2021/10/13 17:58:32;;;;;;;;;;;;;;;;;;;;;
2021/10/13 18:07:40;;;;;;;14.63;11.05;;;;;;;;;;6014448;23;20065;-82
2021/10/13 18:27:24;;;;;;;14.65;13.00;;;;;;;;;;6260276;22;20419;-81
2021/10/13 18:29:50;;;;;;;12.63;10.45;;;;;;;;;;6248568;22;20370;-81
2021/10/13 18:32:17;;;;;;;11.80;10.55;;;;;;;;;;6248820;22;20004;-79
2021/10/13 18:34:43;;;;;;;12.55;10.55;;;;;;;;;;6275596;22;20086;-80
2021/10/13 18:37:11;;;;;;;11.27;10.07;;;;;;;;;;6275789;22;20003;-86
2021/10/13 18:39:43;;;;;;;11.07;9.85;;;;;;;;;;6275777;22;20008;-81
2021/10/13 18:42:31;;;;;;;10.88;9.77;;;;;;;;;;6248123;22;20446;-80
2021/10/13 18:44:59;;;;;;;12.65;10.75;;;;;;;;;;6247267;22;20342;-79
2021/10/13 18:47:58;;;;;;;12.48;10.07;;;;;;;;;;6248260;22;20004;-85
2021/10/13 18:56:54;;;;;;;;;;;;;;;;;;;;;
2021/10/13 19:00:12;;;;;;;;;;;;;;;;;;;;;
2021/10/13 19:09:16;;;;;;;;;;;;;;;;;;;;;
2021/10/13 19:12:19;;;;;;;;;;;;;;;;;;;;;
2021/10/13 19:45:48;;;;;;;;;;;;;;;;;;;;;
2021/10/13 20:03:43;;;;;;;;;;;;;;;;;;;;;
2021/10/13 20:19:05;;;;;;;;;;;;;;;;;;;;;
2021/10/13 20:25:17;;;;;;;;;;;;;;;;;;;;;
2021/10/13 20:40:21;;;;;;;13.13;11.73;;;;;;;;;;5979721;24;20009;-82
2021/10/13 20:43:17;;;;;;;;;;;;;;;;;;;;;
2021/10/13 20:59:00;;;;;;;;;;;;;;;;;;;;;
2021/10/13 21:14:10;;;;;;;14.38;12.95;;;;;;;;;;5869858;24;20010;-85
2021/10/13 21:17:27;;;;;;;;;;;;;;;;;;;;;
2021/10/13 21:26:26;;;;;;;;;;;;;;;;;;;;;
2021/10/13 21:29:07;;;;;;;;;;;;;;;;;;;;;
2021/10/13 21:37:55;;;;;;;;;;;;;;;;;;;;;
2021/10/13 21:47:05;;;;;;;;;;;;;;;;;;;;;
2021/10/13 21:53:17;;;;;;;;;;;;;;;;;;;;;
2021/10/13 22:07:51;;;;;;;12.80;10.85;;;;;;;;;;5886399;24;20017;-83
2021/10/13 22:20:16;;;;;;;;;;;;;;;;;;;;;
2021/10/13 22:26:17;;;;;;;13.18;11.15;;;;;;;;;;5989709;23;20078;-83
2021/10/13 22:29:35;;;;;;;;;;;;;;;;;;;;;
2021/10/13 22:32:19;;;;;;;13.60;11.13;;;;;;;;;;6265567;22;20077;-86
2021/10/13 22:38:09;;;;;;;;;;;;;;;;;;;;;
2021/10/13 22:53:56;;;;;;;;;;;;;;;;;;;;;
2021/10/13 22:56:52;;;;;;;14.88;12.85;;;;;;;;;;6022404;23;20014;-80
2021/10/13 23:03:17;;;;;;;;;;;;;;;;;;;;;
2021/10/13 23:18:20;;;;;;;;;;;;;;;;;;;;;
2021/10/13 23:33:06;;;;;;;;;;;;;;;;;;;;;
